Hlavní strana
METAR-TAF:

METAR-TAF

Letiště :

Columbus County Municipal Airport

Whiteville, Severní Karolína, Spojené státy americké

zeměpisná šířka: 34-16-22N, zeměpisná délka: 078-42-54W, výška: 30 m

Aktuální stav počasí

Zpráva byla vytvořena před 1 hodinou a 23 minutami, v 16:35 UTC
Severozápadní vítr 5 kt
Teplota 10°C
Vlhkost vzduchu 37%
Tlak 1017 hPa
Viditelnost: 16.1 km
Jasno

METAR: KCPC 271635Z AUTO 31005KT 10SM CLR 10/M04 A3003 RMK AO2 T00971041

Čas: 12:58 (17:58 UTC)


TAF: chybějící

Stav a předpovědi počasí z více než 4 000 letišť (zprávy METAR a TAF).

Červené a žluté tečky na mapě představují dostupné meteorologické stanice.

Když kurzor umístíte na tečku, zobrazí se název stanice.

Pak kliknutím zobrazíte stav a předpověď počasí.

Chcete-li změnit mapu, kliknutím na zelené tlačítko se znaménkem +mapu přiblížíte, kliknutím na zelené tlačítko se znaménkem – mapu oddálíte a kliknutím na zelené šipky přejdete na sousední mapy.


METAR-TAF: